Time;durP1;ratioP1;P1;durP2;ratioP2;P2;SDS_P1;SDS_P2;PMS_P1;PMS_P2;Temp;Humidity;BMP_temperature;BMP_pressure;BME280_temperature;BME280_humidity;BME280_pressure;Samples;Min_cycle;Max_cycle;Signal;HPM_P1;HPM_P2
2022/12/28 00:01:17;;;;;;;14.98;4.35;;;;;;;8.44;100.00;97984.94;5086661;28;20031;-83
2022/12/28 00:03:43;;;;;;;10.17;3.37;;;;;;;8.71;100.00;97996.16;5083941;28;20504;-81
2022/12/28 00:06:10;;;;;;;14.45;3.22;;;;;;;8.42;100.00;97981.75;5086237;28;20077;-84
2022/12/28 00:08:36;;;;;;;12.60;3.65;;;;;;;8.68;100.00;97985.28;5086618;28;20456;-84
2022/12/28 00:11:04;;;;;;;10.38;2.95;;;;;;;8.78;100.00;97984.84;5082934;28;20028;-82
2022/12/28 00:13:31;;;;;;;11.38;2.90;;;;;;;8.83;100.00;98008.56;5086425;28;20039;-83
2022/12/28 00:15:58;;;;;;;11.90;3.28;;;;;;;8.74;100.00;98007.19;5088070;28;20532;-82
2022/12/28 00:18:24;;;;;;;8.65;3.00;;;;;;;8.64;100.00;97997.19;5086967;28;20042;-82
2022/12/28 00:20:58;;;;;;;5.68;2.13;;;;;;;9.07;100.00;98019.34;5082540;28;20494;-83
2022/12/28 00:23:24;;;;;;;7.38;2.58;;;;;;;8.88;100.00;97995.66;5084264;28;20543;-82
2022/12/28 00:25:51;;;;;;;6.65;2.20;;;;;;;8.92;100.00;98020.41;5064349;28;20028;-82
2022/12/28 00:28:17;;;;;;;5.38;2.10;;;;;;;8.97;100.00;97983.94;5064348;28;20028;-82
2022/12/28 00:30:42;;;;;;;5.65;1.88;;;;;;;8.77;100.00;97993.69;5084733;28;20029;-82
2022/12/28 00:33:08;;;;;;;9.40;2.20;;;;;;;9.11;100.00;98004.81;5081951;28;20073;-82
2022/12/28 00:35:33;;;;;;;9.15;2.75;;;;;;;9.37;100.00;98031.84;5084090;28;20115;-83
2022/12/28 00:37:59;;;;;;;9.50;2.40;;;;;;;9.18;100.00;98025.72;5080823;28;20080;-83
2022/12/28 00:40:24;;;;;;;7.57;2.88;;;;;;;9.32;100.00;98000.25;5080791;28;20036;-82
2022/12/28 00:42:50;;;;;;;6.55;2.40;;;;;;;9.45;100.00;98010.66;5067147;28;20036;-83
2022/12/28 00:45:15;;;;;;;9.05;3.15;;;;;;;9.38;100.00;97994.16;5086356;28;20024;-81
2022/12/28 00:47:41;;;;;;;9.93;2.60;;;;;;;9.42;100.00;97990.91;5082623;28;20497;-82
2022/12/28 00:50:07;;;;;;;8.57;2.50;;;;;;;9.58;100.00;98015.75;5086272;28;20042;-82
2022/12/28 00:52:33;;;;;;;9.68;2.80;;;;;;;9.23;100.00;97965.66;5083232;28;20030;-82
2022/12/28 00:54:59;;;;;;;7.65;2.45;;;;;;;9.32;100.00;97974.06;5070240;28;20033;-82
2022/12/28 00:57:25;;;;;;;6.53;2.80;;;;;;;8.83;100.00;97987.63;5080342;28;20041;-82
2022/12/28 00:59:50;;;;;;;4.85;2.47;;;;;;;8.85;100.00;97996.09;5084965;28;20401;-83
2022/12/28 01:02:16;;;;;;;5.28;2.20;;;;;;;9.21;100.00;97981.56;5083046;28;20067;-82
2022/12/28 01:04:41;;;;;;;7.25;2.65;;;;;;;9.11;100.00;97976.00;5078488;28;20035;-82
2022/12/28 01:07:07;;;;;;;8.25;3.00;;;;;;;8.95;100.00;97983.34;5066303;28;20063;-82
2022/12/28 01:09:32;;;;;;;8.07;2.50;;;;;;;9.41;100.00;97998.97;5081518;28;20028;-83
2022/12/28 01:11:58;;;;;;;8.63;3.00;;;;;;;9.33;100.00;97986.13;5087723;28;20401;-82
2022/12/28 01:14:24;;;;;;;10.32;3.30;;;;;;;9.16;100.00;97997.13;5082888;28;20028;-82
2022/12/28 01:16:49;;;;;;;9.80;2.92;;;;;;;9.12;100.00;97981.03;5085282;28;20055;-82
2022/12/28 01:19:19;;;;;;;4.88;2.67;;;;;;;9.37;100.00;97997.78;5079504;28;20024;-82
2022/12/28 01:21:47;;;;;;;10.98;3.05;;;;;;;9.06;100.00;97965.38;5081906;28;20035;-83
2022/12/28 01:24:13;;;;;;;4.70;2.22;;;;;;;9.25;100.00;97967.06;5069314;28;20417;-83
2022/12/28 01:26:39;;;;;;;13.57;3.53;;;;;;;9.17;100.00;97951.59;5082877;28;20043;-83
2022/12/28 01:29:05;;;;;;;9.35;2.90;;;;;;;9.26;100.00;97946.91;5080008;28;20031;-83
2022/12/28 01:31:31;;;;;;;16.08;2.92;;;;;;;8.71;100.00;97927.31;5082640;28;20054;-82
2022/12/28 01:33:56;;;;;;;8.30;3.15;;;;;;;8.89;100.00;97944.94;5081433;28;20036;-83
2022/12/28 01:36:25;;;;;;;15.93;3.10;;;;;;;8.86;100.00;97934.91;5083032;28;20051;-82
2022/12/28 01:38:53;;;;;;;13.48;3.55;;;;;;;8.56;100.00;97943.28;5063843;28;20082;-82
2022/12/28 01:41:20;;;;;;;15.65;3.28;;;;;;;8.18;100.00;97923.91;5082663;28;20074;-83
2022/12/28 01:43:53;;;;;;;13.82;4.70;;;;;;;8.43;100.00;97960.59;5064475;28;20433;-82
2022/12/28 01:46:33;;;;;;;;;;;;;;;8.48;100.00;97959.19;5083256;28;20024;-83
2022/12/28 01:49:05;;;;;;;17.15;3.30;;;;;;;8.47;100.00;97963.63;5082447;28;19912;-82
2022/12/28 01:51:42;;;;;;;10.87;4.57;;;;;;;8.46;100.00;97969.06;5082923;28;20544;-83
2022/12/28 01:54:08;;;;;;;11.60;3.50;;;;;;;8.16;100.00;97949.44;5080220;28;20078;-83
2022/12/28 01:56:35;;;;;;;16.80;3.58;;;;;;;7.85;100.00;97964.75;5080907;28;20436;-82
2022/12/28 01:59:01;;;;;;;13.63;3.20;;;;;;;8.23;100.00;97972.94;5082813;28;20479;-82
2022/12/28 02:01:28;;;;;;;15.70;3.03;;;;;;;8.00;100.00;97953.28;5066572;28;20032;-82
2022/12/28 02:03:54;;;;;;;14.40;3.13;;;;;;;7.85;100.00;97940.47;5085164;28;20040;-82
2022/12/28 02:06:19;;;;;;;11.65;3.20;;;;;;;8.05;100.00;97963.94;5084762;28;20082;-82
2022/12/28 02:08:56;;;;;;;15.93;3.33;;;;;;;8.08;100.00;97970.56;5078897;28;20094;-82
2022/12/28 02:11:21;;;;;;;8.52;3.08;;;;;;;7.96;100.00;97944.25;5080026;28;20039;-82
2022/12/28 02:13:50;;;;;;;15.77;3.63;;;;;;;7.84;100.00;97951.94;5068081;28;20478;-83
2022/12/28 02:16:16;;;;;;;15.35;3.67;;;;;;;7.76;100.00;97957.34;5077703;28;20021;-82
2022/12/28 02:18:43;;;;;;;10.05;3.20;;;;;;;7.74;100.00;97951.53;5083820;28;20398;-82
2022/12/28 02:21:21;;;;;;;15.70;3.78;;;;;;;7.72;100.00;97941.28;5077952;28;20143;-84
2022/12/28 02:24:11;;;;;;;18.83;3.60;;;;;;;7.85;100.00;97967.38;5081526;28;20032;-83
2022/12/28 02:27:00;;;;;;;12.23;3.75;;;;;;;7.95;100.00;97971.41;5077869;28;20032;-82
2022/12/28 02:29:59;;;;;;;9.13;3.80;;;;;;;7.83;100.00;97974.63;5079767;28;20111;-82
2022/12/28 02:32:40;;;;;;;17.08;3.85;;;;;;;7.40;100.00;97928.03;5080193;28;20033;-82
2022/12/28 02:35:15;;;;;;;13.70;3.33;;;;;;;7.46;100.00;97937.69;5078236;28;20478;-82
2022/12/28 02:37:46;;;;;;;22.95;3.80;;;;;;;7.49;100.00;97950.34;5078735;28;20385;-81
2022/12/28 02:40:19;;;;;;;18.77;3.50;;;;;;;7.61;100.00;97923.63;5066378;28;20051;-81
2022/12/28 02:42:46;;;;;;;17.83;3.92;;;;;;;7.52;100.00;97916.00;5083733;28;20032;-81
2022/12/28 02:51:21;;;;;;;15.00;3.92;;;;;;;7.67;100.00;97922.81;5081310;28;20025;-82
2022/12/28 02:53:56;;;;;;;21.58;4.80;;;;;;;7.56;100.00;97932.88;5084242;28;20474;-83
2022/12/28 02:56:51;;;;;;;13.00;4.85;;;;;;;7.34;100.00;97913.19;5085254;28;20521;-82
2022/12/28 02:59:22;;;;;;;16.42;3.63;;;;;;;7.36;100.00;97934.69;5081076;28;20056;-82
2022/12/28 03:02:13;;;;;;;10.88;3.55;;;;;;;7.28;100.00;97930.47;5078490;28;20067;-82
2022/12/28 03:05:02;;;;;;;18.77;4.15;;;;;;;6.98;100.00;97902.16;5066283;28;20047;-83
2022/12/28 03:10:44;;;;;;;14.60;3.65;;;;;;;7.04;100.00;97921.41;5083143;28;20536;-83
2022/12/28 03:16:09;;;;;;;16.77;4.22;;;;;;;7.07;100.00;97934.03;5079410;28;20028;-83
2022/12/28 03:32:39;;;;;;;19.00;3.85;;;;;;;6.66;100.00;97876.59;5084302;28;20032;-82
2022/12/28 03:35:05;;;;;;;19.15;4.28;;;;;;;6.85;100.00;97889.88;5080592;28;20038;-82
2022/12/28 03:37:37;;;;;;;13.95;3.58;;;;;;;6.96;100.00;97923.22;5081089;28;20036;-81
2022/12/28 03:40:14;;;;;;;16.20;3.33;;;;;;;6.94;100.00;97933.03;5078440;28;20031;-82
2022/12/28 03:45:31;;;;;;;14.68;3.22;;;;;;;6.80;100.00;97918.34;5084477;28;20075;-81
2022/12/28 03:48:03;;;;;;;8.30;2.72;;;;;;;6.77;100.00;97910.94;5080516;28;20024;-81
2022/12/28 03:50:38;;;;;;;17.63;3.65;;;;;;;6.53;100.00;97905.25;5078109;28;20024;-81
2022/12/28 03:53:03;;;;;;;11.95;4.00;;;;;;;6.62;100.00;97908.50;5079396;28;20044;-82
2022/12/28 03:55:36;;;;;;;15.63;3.20;;;;;;;6.60;100.00;97895.66;5079275;28;20028;-81
2022/12/28 03:58:10;;;;;;;15.75;3.47;;;;;;;6.55;100.00;97882.41;5060769;28;21604;-82
2022/12/28 04:00:36;;;;;;;12.18;3.17;;;;;;;6.40;100.00;97888.56;5085263;28;20377;-84
2022/12/28 04:03:02;;;;;;;11.27;3.63;;;;;;;6.45;100.00;97885.38;5083827;28;20041;-82
2022/12/28 04:05:27;;;;;;;17.17;3.95;;;;;;;6.40;100.00;97866.94;5081141;28;20455;-82
2022/12/28 04:07:53;;;;;;;21.52;4.07;;;;;;;6.36;100.00;97853.47;5083840;28;20023;-82
2022/12/28 04:10:19;;;;;;;15.18;3.33;;;;;;;6.04;100.00;97852.38;5082239;28;20032;-82
2022/12/28 04:12:45;;;;;;;10.80;3.20;;;;;;;6.36;100.00;97845.66;5082835;28;20409;-82
2022/12/28 04:15:10;;;;;;;13.25;4.32;;;;;;;6.43;100.00;97843.88;5079110;28;20035;-81
2022/12/28 04:17:36;;;;;;;14.55;3.67;;;;;;;6.64;100.00;97867.38;5078386;28;20044;-80
2022/12/28 04:20:03;;;;;;;14.07;3.33;;;;;;;6.83;100.00;97878.84;5081123;28;20162;-82
2022/12/28 04:22:28;;;;;;;12.25;3.25;;;;;;;6.91;100.00;97883.88;5085760;28;20039;-82
2022/12/28 04:24:54;;;;;;;12.80;3.30;;;;;;;7.05;100.00;97870.81;5089805;28;20020;-83
2022/12/28 04:27:22;;;;;;;12.85;3.60;;;;;;;7.05;100.00;97868.22;5082732;28;20056;-83
2022/12/28 04:29:48;;;;;;;19.20;3.70;;;;;;;7.05;100.00;97842.13;5088080;28;20032;-84
2022/12/28 04:32:14;;;;;;;18.63;4.60;;;;;;;7.15;100.00;97847.75;5085157;28;20031;-81
2022/12/28 04:34:39;;;;;;;17.67;3.88;;;;;;;6.84;100.00;97815.22;5083985;28;20101;-80
2022/12/28 04:37:05;;;;;;;13.70;3.58;;;;;;;7.20;100.00;97849.75;5066157;28;20024;-83
2022/12/28 04:39:31;;;;;;;16.70;3.60;;;;;;;6.95;100.00;97795.56;5082011;28;20036;-81
2022/12/28 04:41:58;;;;;;;9.88;3.30;;;;;;;6.96;100.00;97803.19;5067251;28;20052;-82
2022/12/28 04:44:24;;;;;;;18.45;4.28;;;;;;;6.91;100.00;97802.19;5085757;28;20132;-82
2022/12/28 04:46:49;;;;;;;13.70;3.67;;;;;;;6.91;100.00;97810.84;5067664;28;20036;-82
2022/12/28 04:49:15;;;;;;;19.58;3.83;;;;;;;6.98;100.00;97811.63;5064871;28;20028;-80
2022/12/28 04:51:41;;;;;;;12.13;3.47;;;;;;;7.20;100.00;97834.88;5086025;28;20126;-82
2022/12/28 04:54:12;;;;;;;15.40;4.32;;;;;;;7.17;100.00;97822.25;5082268;28;20119;-81
2022/12/28 04:56:37;;;;;;;19.75;3.65;;;;;;;7.12;100.00;97829.88;5086146;28;20043;-81
2022/12/28 04:59:03;;;;;;;14.20;4.28;;;;;;;7.19;100.00;97812.41;5082762;28;20466;-82
2022/12/28 05:01:29;;;;;;;17.17;4.82;;;;;;;7.06;100.00;97788.94;5086386;28;20086;-82
2022/12/28 05:03:55;;;;;;;19.95;5.85;;;;;;;7.17;100.00;97792.72;5083013;28;20471;-81
2022/12/28 05:06:22;;;;;;;22.20;5.93;;;;;;;7.36;100.00;97817.22;5080294;28;20116;-82
2022/12/28 05:08:48;;;;;;;12.63;4.10;;;;;;;7.34;100.00;97821.84;5081995;28;20474;-82
2022/12/28 05:11:19;;;;;;;21.52;4.47;;;;;;;6.94;100.00;97783.53;5082819;28;20035;-81
2022/12/28 05:13:45;;;;;;;13.13;4.07;;;;;;;7.24;100.00;97825.66;5065230;28;20024;-80
2022/12/28 05:16:17;;;;;;;18.60;5.13;;;;;;;7.21;100.00;97805.19;5064539;28;20086;-81
2022/12/28 05:18:43;;;;;;;18.30;4.88;;;;;;;7.12;100.00;97801.19;5086324;28;20024;-80
2022/12/28 05:21:12;;;;;;;14.88;4.68;;;;;;;7.25;100.00;97814.19;5068372;28;20116;-83
2022/12/28 05:23:38;;;;;;;18.17;4.28;;;;;;;7.22;100.00;97812.00;5080469;28;20078;-83
2022/12/28 05:26:06;;;;;;;13.10;4.30;;;;;;;7.23;100.00;97792.72;5080005;28;20028;-82
2022/12/28 05:28:32;;;;;;;10.70;4.13;;;;;;;7.23;100.00;97797.16;5088233;28;20469;-81
2022/12/28 05:31:00;;;;;;;18.90;5.10;;;;;;;7.09;100.00;97785.94;5082332;28;20043;-82
2022/12/28 05:33:31;;;;;;;16.63;4.63;;;;;;;7.26;100.00;97799.34;5081405;28;20544;-82
2022/12/28 05:36:02;;;;;;;14.15;3.88;;;;;;;7.08;100.00;97773.91;5085089;28;20029;-82
2022/12/28 05:38:28;;;;;;;18.67;4.47;;;;;;;7.14;100.00;97768.66;5083565;28;20051;-82
2022/12/28 05:40:53;;;;;;;15.77;4.80;;;;;;;7.27;100.00;97769.63;5085339;28;20028;-82
2022/12/28 05:43:19;;;;;;;15.27;4.30;;;;;;;7.33;100.00;97771.41;5083463;28;20531;-82
2022/12/28 05:45:45;;;;;;;14.10;4.05;;;;;;;7.42;100.00;97775.44;5069607;28;20500;-82
2022/12/28 05:48:10;;;;;;;21.00;4.82;;;;;;;7.18;100.00;97736.94;5082470;28;20024;-81
2022/12/28 05:50:36;;;;;;;13.30;4.30;;;;;;;7.26;100.00;97739.31;5082149;28;20096;-82
2022/12/28 05:53:02;;;;;;;20.45;4.75;;;;;;;7.40;100.00;97760.97;5063551;28;20101;-82
2022/12/28 05:55:27;;;;;;;17.33;4.32;;;;;;;7.40;100.00;97761.78;5078453;28;20043;-82
2022/12/28 05:57:54;;;;;;;14.27;4.55;;;;;;;7.56;100.00;97770.16;5085166;28;20541;-82
2022/12/28 06:00:20;;;;;;;19.20;4.80;;;;;;;7.46;100.00;97778.41;5080815;28;20061;-82
2022/12/28 06:02:46;;;;;;;18.48;4.68;;;;;;;7.42;100.00;97743.28;5061084;28;20395;-82
2022/12/28 06:05:13;;;;;;;17.13;4.03;;;;;;;7.65;100.00;97768.09;5083341;28;20032;-82
2022/12/28 06:07:39;;;;;;;17.25;4.70;;;;;;;7.70;100.00;97745.59;5065396;28;20044;-81
2022/12/28 06:10:05;;;;;;;17.92;4.68;;;;;;;7.81;100.00;97749.34;5081645;28;20042;-81
2022/12/28 06:12:31;;;;;;;16.60;4.97;;;;;;;7.94;100.00;97766.78;5085841;28;20517;-81
2022/12/28 06:14:56;;;;;;;13.93;4.32;;;;;;;7.81;100.00;97733.69;5082508;28;20037;-81
2022/12/28 06:17:22;;;;;;;17.98;5.05;;;;;;;7.96;100.00;97750.91;5081855;28;20038;-82
2022/12/28 06:19:48;;;;;;;15.88;4.53;;;;;;;7.99;100.00;97740.03;5081671;28;20028;-81
2022/12/28 06:22:13;;;;;;;25.27;5.28;;;;;;;8.05;100.00;97741.78;5082001;28;20032;-81
2022/12/28 06:24:39;;;;;;;19.08;4.28;;;;;;;7.97;100.00;97718.53;5088044;28;20493;-82
2022/12/28 06:27:05;;;;;;;22.85;5.13;;;;;;;7.92;100.00;97711.31;5084384;28;20024;-81
2022/12/28 06:29:30;;;;;;;18.52;4.88;;;;;;;7.75;100.00;97697.97;5085635;28;20020;-82
2022/12/28 06:31:59;;;;;;;12.98;3.90;;;;;;;7.96;100.00;97725.59;5079807;28;20028;-82
2022/12/28 06:34:26;;;;;;;17.85;4.75;;;;;;;7.82;100.00;97705.75;5078117;28;20058;-83
2022/12/28 06:36:52;;;;;;;17.50;4.22;;;;;;;7.92;100.00;97700.88;5083727;28;20382;-81
2022/12/28 06:39:19;;;;;;;17.70;3.92;;;;;;;7.88;100.00;97670.94;5085241;28;20032;-84
2022/12/28 06:41:45;;;;;;;13.55;4.60;;;;;;;7.90;100.00;97682.00;5076724;28;20020;-83
2022/12/28 06:44:12;;;;;;;16.73;4.82;;;;;;;7.71;100.00;97673.28;5079592;28;20029;-84
2022/12/28 06:46:38;;;;;;;15.98;4.38;;;;;;;7.80;100.00;97687.66;5059236;28;20558;-83
2022/12/28 06:49:04;;;;;;;12.45;4.40;;;;;;;7.79;100.00;97685.28;5080349;28;20035;-84
2022/12/28 06:51:34;;;;;;;14.52;4.13;;;;;;;7.73;100.00;97671.25;5077915;28;20024;-83
2022/12/28 06:54:01;;;;;;;14.23;5.15;;;;;;;7.70;100.00;97656.78;5084185;28;20020;-83
2022/12/28 06:56:29;;;;;;;14.73;4.05;;;;;;;7.79;100.00;97680.06;5088203;28;20054;-82
2022/12/28 06:58:56;;;;;;;18.77;4.90;;;;;;;7.70;100.00;97650.78;5064702;28;20074;-84
2022/12/28 07:01:27;;;;;;;18.23;5.05;;;;;;;7.85;100.00;97671.38;5080656;28;20033;-84
2022/12/28 07:03:55;;;;;;;22.35;7.80;;;;;;;7.86;100.00;97663.34;5084006;28;20039;-84
2022/12/28 07:06:24;;;;;;;20.30;4.75;;;;;;;7.90;100.00;97655.06;5081582;28;20066;-83
2022/12/28 07:08:50;;;;;;;12.70;5.20;;;;;;;7.93;100.00;97644.19;5084819;28;20081;-82
2022/12/28 07:11:20;;;;;;;18.23;6.53;;;;;;;7.91;100.00;97636.56;5079719;28;20027;-84
2022/12/28 07:13:46;;;;;;;15.02;5.63;;;;;;;7.91;100.00;97635.78;5083778;28;20047;-82
2022/12/28 07:16:20;;;;;;;19.98;6.00;;;;;;;7.96;100.00;97630.72;5078502;28;20106;-83
2022/12/28 07:18:46;;;;;;;13.55;4.93;;;;;;;7.76;100.00;97623.00;5077160;28;20036;-85
2022/12/28 07:21:24;;;;;;;15.20;4.63;;;;;;;7.95;100.00;97626.50;5075012;28;20371;-84
2022/12/28 07:23:51;;;;;;;12.13;4.55;;;;;;;7.98;100.00;97616.44;5073449;28;20082;-84
2022/12/28 07:26:23;;;;;;;16.33;4.10;;;;;;;7.96;100.00;97622.88;5077650;28;20043;-85
2022/12/28 07:28:51;;;;;;;10.95;4.88;;;;;;;7.94;100.00;97606.59;5080555;28;20020;-85
2022/12/28 07:31:22;;;;;;;17.50;6.22;;;;;;;8.01;100.00;97609.97;5081974;28;20028;-83
2022/12/28 07:33:50;;;;;;;16.42;3.75;;;;;;;8.08;100.00;97612.53;5061529;28;20040;-83
2022/12/28 07:36:17;;;;;;;11.23;3.95;;;;;;;7.95;100.00;97600.38;5082255;28;20115;-81
2022/12/28 07:38:43;;;;;;;10.95;3.63;;;;;;;8.14;100.00;97616.88;5077772;28;20031;-82
2022/12/28 07:41:18;;;;;;;19.77;4.05;;;;;;;8.23;100.00;97612.19;5078159;28;20406;-84
2022/12/28 07:43:44;;;;;;;17.15;4.72;;;;;;;8.28;100.00;97604.53;5082493;28;20393;-83
2022/12/28 07:46:19;;;;;;;12.85;4.22;;;;;;;8.25;100.00;97591.88;5081936;28;20097;-83
2022/12/28 07:48:45;;;;;;;17.25;4.15;;;;;;;8.33;100.00;97586.38;5080635;28;20046;-84
2022/12/28 07:51:14;;;;;;;15.05;3.33;;;;;;;8.34;100.00;97577.50;5083251;28;20036;-82
2022/12/28 07:53:41;;;;;;;9.40;3.28;;;;;;;8.38;100.00;97576.06;5079156;28;20390;-84
2022/12/28 07:56:08;;;;;;;15.63;3.60;;;;;;;8.32;100.00;97548.19;5080257;28;20036;-84
2022/12/28 07:58:34;;;;;;;13.57;3.80;;;;;;;8.29;100.00;97548.63;5088202;28;20040;-84
2022/12/28 08:01:07;;;;;;;12.20;3.30;;;;;;;8.41;100.00;97541.63;5090563;28;20482;-83
2022/12/28 08:03:35;;;;;;;14.63;3.38;;;;;;;8.46;100.00;97537.59;5083252;28;20033;-83
2022/12/28 08:06:12;;;;;;;15.95;4.07;;;;;;;8.47;100.00;97547.03;5088264;28;20028;-81
2022/12/28 08:08:44;;;;;;;11.75;3.83;;;;;;;8.32;100.00;97516.81;5081111;28;20448;-83
2022/12/28 08:11:18;;;;;;;7.10;3.65;;;;;;;8.44;100.00;97525.50;5080232;28;20039;-82
2022/12/28 08:13:46;;;;;;;10.75;4.03;;;;;;;8.51;100.00;97524.69;5080702;28;20047;-82
2022/12/28 08:16:14;;;;;;;13.27;3.30;;;;;;;8.37;100.00;97503.88;5068090;28;20465;-82
2022/12/28 08:18:40;;;;;;;19.52;5.32;;;;;;;8.16;100.00;97494.66;5084391;28;20038;-83
2022/12/28 08:21:11;;;;;;;14.40;3.78;;;;;;;8.28;100.00;97489.50;5083946;28;20032;-83
2022/12/28 08:23:37;;;;;;;16.15;3.55;;;;;;;8.36;100.00;97494.44;5087301;28;20035;-83
2022/12/28 08:26:24;;;;;;;15.55;4.25;;;;;;;8.46;100.00;97498.38;5080392;28;20723;-81
2022/12/28 08:28:52;;;;;;;9.00;3.40;;;;;;;8.40;100.00;97479.13;5088127;28;20069;-85
2022/12/28 08:31:20;;;;;;;17.17;4.65;;;;;;;8.52;100.00;97494.91;5088120;28;20052;-82
2022/12/28 08:33:46;;;;;;;12.32;3.67;;;;;;;8.44;100.00;97478.44;5068211;28;20039;-84
2022/12/28 08:36:12;;;;;;;12.88;4.20;;;;;;;8.40;100.00;97466.81;5087854;28;20466;-80
2022/12/28 08:38:41;;;;;;;8.50;3.97;;;;;;;8.50;100.00;97479.41;5090766;28;20028;-82
2022/12/28 08:41:10;;;;;;;13.50;4.80;;;;;;;8.48;100.00;97470.97;5066851;28;20032;-81
2022/12/28 08:43:36;;;;;;;9.23;4.40;;;;;;;8.48;100.00;97454.50;5064671;28;20028;-83
2022/12/28 08:46:07;;;;;;;14.23;5.32;;;;;;;8.36;100.00;97434.31;5067840;28;20028;-83
2022/12/28 08:48:33;;;;;;;15.43;5.07;;;;;;;8.64;100.00;97464.34;5082033;28;20028;-82
2022/12/28 08:51:08;;;;;;;11.35;5.05;;;;;;;8.38;100.00;97423.63;5083502;28;20028;-82
2022/12/28 08:53:35;;;;;;;13.50;5.85;;;;;;;8.37;100.00;97446.34;5080656;28;20024;-82
2022/12/28 08:56:09;;;;;;;12.20;5.10;;;;;;;8.60;100.00;97452.75;5080741;28;20028;-83
2022/12/28 08:58:35;;;;;;;14.73;7.00;;;;;;;8.64;100.00;97450.50;5086013;28;20032;-83
2022/12/28 09:01:10;;;;;;;12.52;7.13;;;;;;;8.77;100.00;97439.06;5082528;28;20032;-83
2022/12/28 09:03:37;;;;;;;14.75;8.77;;;;;;;8.60;100.00;97399.66;5083938;28;20024;-84
2022/12/28 09:06:08;;;;;;;18.42;10.32;;;;;;;8.78;100.00;97417.91;5081049;28;20039;-84
2022/12/28 09:08:35;;;;;;;18.23;11.38;;;;;;;8.61;100.00;97388.94;5081875;28;20040;-83
2022/12/28 09:11:02;;;;;;;69.63;15.18;;;;;;;8.66;100.00;97407.41;5082122;28;20028;-83
2022/12/28 09:13:28;;;;;;;23.70;11.98;;;;;;;8.83;100.00;97406.75;5085830;28;20028;-85
2022/12/28 09:16:00;;;;;;;18.73;10.82;;;;;;;8.93;100.00;97407.03;5079662;28;20028;-83
2022/12/28 09:18:25;;;;;;;22.67;11.18;;;;;;;8.85;100.00;97387.22;5082367;28;20020;-83
2022/12/28 09:20:52;;;;;;;29.60;12.45;;;;;;;8.99;100.00;97393.03;5080662;28;20123;-83
2022/12/28 09:23:17;;;;;;;24.80;12.68;;;;;;;8.99;100.00;97394.88;5081634;28;20032;-86
2022/12/28 09:25:43;;;;;;;25.95;12.25;;;;;;;8.96;100.00;97375.16;5078959;28;20390;-84
2022/12/28 09:28:09;;;;;;;26.67;14.52;;;;;;;9.06;100.00;97379.06;5082440;28;20027;-86
2022/12/28 09:30:35;;;;;;;27.95;15.10;;;;;;;9.04;100.00;97365.38;5077495;28;20028;-80
2022/12/28 09:35:46;;;;;;;34.92;15.02;;;;;;;9.05;100.00;97351.31;5078200;28;20551;-84
2022/12/28 09:38:11;;;;;;;38.85;16.67;;;;;;;8.94;100.00;97324.88;5082378;28;20032;-83
2022/12/28 09:40:38;;;;;;;43.33;15.75;;;;;;;8.79;100.00;97337.59;5084109;28;20398;-82
2022/12/28 09:43:04;;;;;;;34.92;14.48;;;;;;;9.05;100.00;97331.16;5086425;28;20036;-84
2022/12/28 09:45:32;;;;;;;26.30;12.05;;;;;;;9.03;100.00;97329.78;5076596;28;20025;-82
2022/12/28 09:48:09;;;;;;;22.55;11.48;;;;;;;9.03;100.00;97309.66;5083398;28;20078;-86
2022/12/28 09:50:36;;;;;;;23.08;11.27;;;;;;;9.20;100.00;97314.97;5078558;28;20048;-84
2022/12/28 09:53:28;;;;;;;23.23;11.38;;;;;;;9.31;100.00;97296.88;5080119;28;20031;-82
2022/12/28 09:56:05;;;;;;;22.15;9.80;;;;;;;9.26;100.00;97306.22;5078281;28;20021;-83
2022/12/28 09:58:32;;;;;;;19.80;9.73;;;;;;;9.17;100.00;97284.03;5086679;28;20043;-83
2022/12/28 10:01:01;;;;;;;14.90;8.77;;;;;;;9.35;100.00;97288.34;5076037;28;20405;-85
2022/12/28 10:03:37;;;;;;;42.97;9.98;;;;;;;9.26;100.00;97277.44;5083100;28;20036;-84
2022/12/28 10:06:10;;;;;;;16.08;8.18;;;;;;;9.08;100.00;97259.25;5081299;28;20025;-84
2022/12/28 10:08:40;;;;;;;16.73;8.40;;;;;;;9.38;100.00;97260.91;5082679;28;20044;-83
2022/12/28 10:11:20;;;;;;;15.40;7.32;;;;;;;9.42;100.00;97235.84;5082669;28;20062;-82
2022/12/28 10:13:51;;;;;;;12.75;7.18;;;;;;;9.65;100.00;97245.47;5068576;28;20035;-86
2022/12/28 10:16:19;;;;;;;15.50;8.07;;;;;;;9.59;100.00;97238.53;5083862;28;20027;-81
2022/12/28 10:18:48;;;;;;;17.60;7.35;;;;;;;9.60;100.00;97242.75;5085126;28;20025;-83
2022/12/28 10:21:19;;;;;;;15.68;7.53;;;;;;;9.52;100.00;97222.94;5081352;28;20028;-82
2022/12/28 10:23:46;;;;;;;16.48;7.85;;;;;;;9.76;100.00;97220.25;5064657;28;20032;-80
2022/12/28 10:26:17;;;;;;;13.20;7.30;;;;;;;9.84;100.00;97212.03;5088450;28;20119;-82
2022/12/28 10:29:01;;;;;;;11.65;7.13;;;;;;;9.90;100.00;97212.13;5080128;28;20085;-81
2022/12/28 10:31:35;;;;;;;13.40;7.45;;;;;;;9.83;100.00;97192.09;5077849;28;20557;-82
2022/12/28 10:34:23;;;;;;;15.27;7.68;;;;;;;9.67;100.00;97154.34;5080920;28;20039;-83
2022/12/28 10:37:18;;;;;;;13.20;7.57;;;;;;;9.84;100.00;97185.00;5082586;28;20032;-82
2022/12/28 10:40:16;;;;;;;18.15;8.23;;;;;;;10.03;100.00;97180.38;5085334;28;20037;-82
2022/12/28 10:42:45;;;;;;;13.23;7.97;;;;;;;9.85;100.00;97161.22;5083118;28;20040;-81
2022/12/28 10:45:18;;;;;;;17.65;8.27;;;;;;;10.05;100.00;97164.41;5066331;28;20085;-83
2022/12/28 10:47:51;;;;;;;11.75;6.80;;;;;;;9.89;100.00;97113.56;5081896;28;20024;-81
2022/12/28 10:50:45;;;;;;;11.90;7.15;;;;;;;10.29;100.00;97146.69;5070953;28;20023;-89
2022/12/28 10:53:31;;;;;;;12.27;5.90;;;;;;;10.53;100.00;97134.22;5084053;28;20043;-85
2022/12/28 10:56:03;;;;;;;16.00;8.75;;;;;;;10.77;100.00;97117.47;5066630;28;20028;-84
2022/12/28 10:58:30;;;;;;;8.55;4.55;;;;;;;10.65;100.00;97078.22;5080128;28;20045;-89
2022/12/28 11:01:02;;;;;;;9.20;4.68;;;;;;;10.68;100.00;97073.28;5088907;28;20371;-90
2022/12/28 11:03:34;;;;;;;26.50;7.97;;;;;;;10.70;100.00;97058.09;5069674;28;20488;-88
2022/12/28 11:06:17;;;;;;;16.50;6.88;;;;;;;10.92;100.00;97077.50;5073688;28;20477;-84
2022/12/28 11:08:57;;;;;;;7.30;4.25;;;;;;;10.85;100.00;97069.81;5082223;28;20084;-88
2022/12/28 11:11:24;;;;;;;7.68;5.28;;;;;;;10.75;100.00;97052.13;5081031;28;20032;-87
2022/12/28 11:14:01;;;;;;;4.07;2.88;;;;;;;10.92;100.00;97052.03;5084423;28;20074;-87
2022/12/28 11:16:32;;;;;;;4.60;2.80;;;;;;;10.96;100.00;97040.00;5078814;28;20032;-89
2022/12/28 11:18:57;;;;;;;4.15;3.00;;;;;;;11.03;100.00;97026.69;5062198;28;20430;-88
2022/12/28 11:21:25;;;;;;;6.63;4.60;;;;;;;10.93;100.00;97001.13;5072555;28;20067;-86
2022/12/28 11:23:52;;;;;;;8.68;4.72;;;;;;;10.90;100.00;97012.13;5083692;28;20481;-89
2022/12/28 11:26:19;;;;;;;7.15;3.97;;;;;;;11.07;100.00;97000.75;5081179;28;20032;-88
2022/12/28 11:28:50;;;;;;;3.90;2.90;;;;;;;10.97;100.00;96996.97;5084864;28;20025;-89
2022/12/28 11:31:21;;;;;;;8.35;3.97;;;;;;;10.90;100.00;96990.31;5065003;28;20383;-89
2022/12/28 11:33:51;;;;;;;11.93;6.18;;;;;;;10.97;100.00;96981.22;5094466;28;20035;-88
2022/12/28 11:36:20;;;;;;;12.75;5.90;;;;;;;11.10;100.00;96968.72;5090736;28;20024;-88
2022/12/28 11:38:49;;;;;;;13.77;6.97;;;;;;;10.95;100.00;96945.75;5085979;28;20039;-90
2022/12/28 11:41:25;;;;;;;15.07;7.43;;;;;;;11.04;100.00;96953.97;5085750;28;20028;-88
2022/12/28 11:43:52;;;;;;;10.55;6.45;;;;;;;11.05;100.00;96947.69;5081979;28;20032;-87
2022/12/28 11:46:21;;;;;;;8.48;5.40;;;;;;;10.80;100.00;96938.50;5100119;28;20110;-89
2022/12/28 11:48:54;;;;;;;7.85;4.53;;;;;;;10.83;100.00;96917.06;5064329;28;20036;-82
2022/12/28 11:51:24;;;;;;;4.65;2.40;;;;;;;11.02;100.00;96906.19;5082533;28;20032;-85
2022/12/28 11:54:12;;;;;;;6.20;4.13;;;;;;;10.84;100.00;96881.88;5085365;28;20490;-84
2022/12/28 11:56:52;;;;;;;5.15;3.92;;;;;;;10.91;100.00;96890.34;5077692;28;20089;-84
2022/12/28 11:59:28;;;;;;;4.35;2.80;;;;;;;11.09;100.00;96870.00;5084812;28;20428;-84
2022/12/28 12:02:18;;;;;;;5.68;3.38;;;;;;;11.17;100.00;96859.03;5085597;28;20052;-83
2022/12/28 12:04:45;;;;;;;4.93;3.25;;;;;;;10.98;100.00;96829.75;5085022;28;20024;-85
2022/12/28 12:07:24;;;;;;;5.10;2.60;;;;;;;11.18;100.00;96830.94;5066082;28;20093;-84
2022/12/28 12:10:12;;;;;;;5.43;2.90;;;;;;;10.83;100.00;96833.06;5088650;28;20029;-85